Time;durP1;ratioP1;P1;durP2;ratioP2;P2;SDS_P1;SDS_P2;PMS_P1;PMS_P2;Temp;Humidity;BMP_temperature;BMP_pressure;BME280_temperature;BME280_humidity;BME280_pressure;Samples;Min_cycle;Max_cycle;Signal;HPM_P1;HPM_P2
2023/01/28 00:00:52;;;;;;;7.57;3.75;;;5.10;66.70;;;;;;2315719;53;25236;-72
2023/01/28 00:03:21;;;;;;;7.18;4.07;;;5.10;66.80;;;;;;2313790;54;21558;-72
2023/01/28 00:05:48;;;;;;;7.87;4.35;;;5.10;66.70;;;;;;2314245;54;21504;-72
2023/01/28 00:08:15;;;;;;;8.55;4.80;;;5.10;66.70;;;;;;2468781;52;20994;-72
2023/01/28 00:10:41;;;;;;;9.00;4.85;;;5.10;66.70;;;;;;2334686;54;20965;-71
2023/01/28 00:13:08;;;;;;;7.93;4.20;;;5.00;66.60;;;;;;2340738;53;20958;-71
2023/01/28 00:15:35;;;;;;;7.85;4.28;;;5.00;66.60;;;;;;2314078;53;21707;-72
2023/01/28 00:18:04;;;;;;;7.97;4.50;;;5.00;66.70;;;;;;2435222;53;21017;-72
2023/01/28 00:20:30;;;;;;;7.82;4.50;;;5.00;66.70;;;;;;2313834;54;21001;-72
2023/01/28 00:22:56;;;;;;;8.25;3.97;;;5.00;66.70;;;;;;2313905;54;21970;-71
2023/01/28 00:26:03;;;;;;;7.95;3.62;;;5.00;66.80;;;;;;2314472;54;20972;-72
2023/01/28 00:28:29;;;;;;;6.60;3.20;;;5.00;66.50;;;;;;2339444;53;20956;-72
2023/01/28 00:30:55;;;;;;;5.87;3.00;;;5.00;66.70;;;;;;2314114;54;21853;-72
2023/01/28 00:33:22;;;;;;;5.50;2.92;;;5.00;66.80;;;;;;2314085;54;20988;-72
2023/01/28 00:35:57;;;;;;;6.18;2.92;;;4.90;66.60;;;;;;2429178;53;20956;-72
2023/01/28 00:38:24;;;;;;;6.18;3.15;;;5.00;66.60;;;;;;2313801;54;20980;-72
2023/01/28 00:40:50;;;;;;;6.53;3.47;;;4.90;66.60;;;;;;2313897;53;20987;-71
2023/01/28 00:43:18;;;;;;;5.37;2.83;;;4.90;66.60;;;;;;2326083;53;21030;-72
2023/01/28 00:45:44;;;;;;;7.35;3.45;;;4.90;66.60;;;;;;2521853;53;21501;-72
2023/01/28 00:48:10;;;;;;;5.28;3.00;;;4.90;66.70;;;;;;2461697;53;20933;-72
2023/01/28 00:50:38;;;;;;;5.95;3.10;;;4.90;66.60;;;;;;2413216;53;20947;-72
2023/01/28 00:53:05;;;;;;;7.22;4.12;;;4.90;66.60;;;;;;2339161;53;21692;-71
2023/01/28 00:55:32;;;;;;;5.53;2.92;;;4.80;66.60;;;;;;2324126;53;21020;-72
2023/01/28 00:57:58;;;;;;;7.43;3.70;;;4.80;66.60;;;;;;2314479;54;21521;-72
2023/01/28 01:00:26;;;;;;;7.37;3.75;;;4.80;66.60;;;;;;2313747;53;20937;-72
2023/01/28 01:02:55;;;;;;;6.30;3.50;;;4.80;66.70;;;;;;2313713;54;21016;-72
2023/01/28 01:05:23;;;;;;;6.10;3.45;;;4.80;66.70;;;;;;2314754;54;20972;-71
2023/01/28 01:07:49;;;;;;;6.90;3.62;;;4.80;67.50;;;;;;2443071;53;21543;-72
2023/01/28 01:10:17;;;;;;;8.32;4.15;;;4.80;66.80;;;;;;2314097;54;21807;-71
2023/01/28 01:12:45;;;;;;;6.85;3.55;;;4.80;66.90;;;;;;2314121;54;21036;-72
2023/01/28 01:15:11;;;;;;;7.82;4.28;;;4.80;66.90;;;;;;2314071;54;20941;-73
2023/01/28 01:17:39;;;;;;;7.70;4.45;;;4.80;67.00;;;;;;2554005;53;20964;-72
2023/01/28 01:20:06;;;;;;;7.05;3.62;;;4.90;67.10;;;;;;2426616;53;20931;-72
2023/01/28 01:22:33;;;;;;;6.65;3.47;;;4.90;67.10;;;;;;2314076;54;20998;-72
2023/01/28 01:25:00;;;;;;;5.90;3.03;;;4.80;67.00;;;;;;2314521;54;21048;-72
2023/01/28 01:27:26;;;;;;;6.35;3.40;;;4.90;67.10;;;;;;2314237;54;20916;-72
2023/01/28 01:29:52;;;;;;;6.60;3.47;;;4.90;67.10;;;;;;2310003;54;22156;-71
2023/01/28 01:32:19;;;;;;;7.82;3.67;;;4.90;67.10;;;;;;2442448;53;21821;-72
2023/01/28 01:34:45;;;;;;;7.87;4.15;;;4.90;67.00;;;;;;2582021;53;21455;-72
2023/01/28 01:37:11;;;;;;;7.50;4.12;;;4.90;67.00;;;;;;2311499;53;21715;-72
2023/01/28 01:39:38;;;;;;;8.80;4.68;;;4.90;67.00;;;;;;2313728;53;21040;-72
2023/01/28 01:42:04;;;;;;;9.32;5.22;;;4.90;67.00;;;;;;2314321;54;20928;-72
2023/01/28 01:44:59;;;;;;;9.70;5.47;;;4.90;67.00;;;;;;2553924;53;21942;-72
2023/01/28 01:48:02;;;;;;;9.25;4.70;;;4.90;66.80;;;;;;2314196;54;21815;-71
2023/01/28 01:50:33;;;;;;;;;;;4.90;66.60;;;;;;2317284;54;21005;-72
2023/01/28 01:53:04;;;;;;;11.07;5.70;;;4.90;66.30;;;;;;2555090;53;20111;-72
2023/01/28 01:55:30;;;;;;;9.38;5.05;;;4.90;67.00;;;;;;2313704;54;21039;-71
2023/01/28 01:57:58;;;;;;;10.27;5.03;;;4.90;67.10;;;;;;2315022;54;20965;-71
2023/01/28 02:00:25;;;;;;;11.20;5.37;;;4.90;67.10;;;;;;2314016;54;20967;-72
2023/01/28 02:02:51;;;;;;;9.52;5.03;;;4.90;67.10;;;;;;2554907;53;21742;-72
2023/01/28 02:05:20;;;;;;;7.97;4.18;;;4.90;67.20;;;;;;2314611;54;21021;-72
2023/01/28 02:07:48;;;;;;;8.35;4.55;;;4.90;67.20;;;;;;2314092;54;20964;-72
2023/01/28 02:10:16;;;;;;;8.18;4.85;;;4.90;67.20;;;;;;2314297;54;21722;-72
2023/01/28 02:12:50;;;;;;;7.00;4.18;;;4.90;67.20;;;;;;2313883;53;20933;-71
2023/01/28 02:15:21;;;;;;;7.97;4.80;;;4.90;67.20;;;;;;2314338;54;20960;-72
2023/01/28 02:17:48;;;;;;;7.50;4.17;;;4.90;67.30;;;;;;2314831;54;20956;-72
2023/01/28 02:23:34;;;;;;;9.82;4.80;;;4.90;67.30;;;;;;2547421;53;21030;-73
2023/01/28 02:27:48;;;;;;;7.55;3.42;;;5.00;66.60;;;;;;2314703;54;21028;-72
2023/01/28 02:30:20;;;;;;;7.87;3.78;;;5.00;66.70;;;;;;2313957;54;21012;-72
2023/01/28 02:32:54;;;;;;;4.70;2.83;;;5.00;67.40;;;;;;2528270;53;20957;-72
2023/01/28 02:35:52;;;;;;;6.37;3.30;;;5.00;67.40;;;;;;2321638;53;20952;-72
2023/01/28 02:38:22;;;;;;;4.85;2.83;;;5.00;67.10;;;;;;2385865;53;20956;-72
2023/01/28 02:41:01;;;;;;;5.13;2.67;;;5.00;67.40;;;;;;2313699;54;22166;-71
2023/01/28 02:43:35;;;;;;;5.43;3.00;;;5.00;67.40;;;;;;2313289;54;21241;-71
2023/01/28 02:49:27;;;;;;;5.43;2.60;;;5.10;67.20;;;;;;2313349;54;20952;-72
2023/01/28 02:57:58;;;;;;;5.00;2.75;;;5.10;67.80;;;;;;2402986;53;20938;-72
2023/01/28 03:02:36;;;;;;;5.65;2.92;;;5.10;67.10;;;;;;2313317;54;20960;-72
2023/01/28 03:06:07;;;;;;;5.05;2.45;;;5.10;67.00;;;;;;2313860;53;20937;-72
2023/01/28 03:39:12;;;;;;;5.05;2.50;;;5.20;67.50;;;;;;2314345;54;20933;-72
2023/01/28 03:41:38;;;;;;;4.47;2.40;;;5.20;67.40;;;;;;2313600;54;20972;-71
2023/01/28 03:50:18;;;;;;;5.85;2.50;;;5.20;67.80;;;;;;2537741;53;21811;-71
2023/01/28 03:52:44;;;;;;;6.03;2.90;;;5.20;67.40;;;;;;2313956;54;21019;-72
2023/01/28 03:55:13;;;;;;;4.78;2.53;;;5.20;67.40;;;;;;2314589;53;20969;-72
2023/01/28 03:57:40;;;;;;;4.28;2.10;;;5.20;67.40;;;;;;2313986;54;20953;-72
2023/01/28 04:00:09;;;;;;;4.25;2.40;;;5.20;67.40;;;;;;2330457;53;20934;-72
2023/01/28 04:02:38;;;;;;;4.35;2.20;;;5.20;67.50;;;;;;2323104;53;21016;-72
2023/01/28 04:05:11;;;;;;;5.03;2.80;;;5.20;67.40;;;;;;2315098;54;20948;-72
2023/01/28 04:07:38;;;;;;;5.40;2.67;;;5.20;67.40;;;;;;2313303;54;21013;-72
2023/01/28 04:10:06;;;;;;;5.68;2.50;;;5.30;67.50;;;;;;2314453;54;21770;-71
2023/01/28 04:12:32;;;;;;;5.53;2.58;;;5.30;67.50;;;;;;2460421;53;20973;-72
2023/01/28 04:14:58;;;;;;;5.35;2.67;;;5.30;67.40;;;;;;2468003;53;21019;-72
2023/01/28 04:17:24;;;;;;;4.40;2.37;;;5.30;67.40;;;;;;2333571;53;20942;-72
2023/01/28 04:19:51;;;;;;;4.12;2.17;;;5.30;67.40;;;;;;2320797;53;21107;-72
2023/01/28 04:22:18;;;;;;;4.12;2.10;;;5.30;67.40;;;;;;2378025;53;21009;-72
2023/01/28 04:24:44;;;;;;;4.45;2.15;;;5.30;67.40;;;;;;2554629;53;20960;-72
2023/01/28 04:27:10;;;;;;;4.28;2.20;;;5.30;67.40;;;;;;2330888;53;21325;-72
2023/01/28 04:29:36;;;;;;;5.00;2.60;;;5.30;67.30;;;;;;2322825;53;21776;-72
2023/01/28 04:32:04;;;;;;;4.95;2.55;;;5.40;67.40;;;;;;2314633;54;21730;-72
2023/01/28 04:34:30;;;;;;;3.62;1.73;;;5.40;67.40;;;;;;2554590;53;20929;-72
2023/01/28 04:36:58;;;;;;;4.12;2.40;;;5.40;67.40;;;;;;2375133;53;20962;-72
2023/01/28 04:39:24;;;;;;;4.65;2.30;;;5.40;67.50;;;;;;2325943;53;21015;-72
2023/01/28 04:41:50;;;;;;;4.07;2.28;;;5.40;67.40;;;;;;2314525;54;21019;-72
2023/01/28 04:44:16;;;;;;;4.62;2.50;;;5.40;67.40;;;;;;2379907;53;20973;-71
2023/01/28 04:46:43;;;;;;;4.35;2.65;;;5.40;67.30;;;;;;2314362;54;20976;-73
2023/01/28 04:49:09;;;;;;;4.20;2.33;;;5.40;67.30;;;;;;2325040;53;21070;-72
2023/01/28 04:51:37;;;;;;;4.50;2.20;;;5.40;67.30;;;;;;2336968;53;20962;-73
2023/01/28 04:54:03;;;;;;;4.57;2.12;;;5.40;67.30;;;;;;2328906;53;20980;-71
2023/01/28 04:56:31;;;;;;;4.10;2.17;;;5.40;67.30;;;;;;2332864;53;21021;-72
2023/01/28 04:58:57;;;;;;;4.65;2.30;;;5.40;67.30;;;;;;2319961;53;21675;-73
2023/01/28 05:01:24;;;;;;;4.32;1.98;;;5.40;67.20;;;;;;2466240;53;20921;-72
2023/01/28 05:03:51;;;;;;;4.43;1.90;;;5.40;67.20;;;;;;2312890;54;21587;-72
2023/01/28 05:06:18;;;;;;;3.17;1.73;;;5.40;67.10;;;;;;2431101;53;21276;-72
2023/01/28 05:08:46;;;;;;;3.58;1.70;;;5.40;67.10;;;;;;2312814;54;20978;-72
2023/01/28 05:11:12;;;;;;;4.10;1.70;;;5.40;67.00;;;;;;2313332;54;20964;-72
2023/01/28 05:13:39;;;;;;;4.20;2.03;;;5.40;67.00;;;;;;2312537;54;21088;-72
2023/01/28 05:16:06;;;;;;;4.05;2.15;;;5.40;67.00;;;;;;2507287;53;21804;-71
2023/01/28 05:18:32;;;;;;;3.28;1.60;;;5.40;67.00;;;;;;2321846;54;21018;-71
2023/01/28 05:20:58;;;;;;;3.85;1.90;;;5.40;67.00;;;;;;2366416;53;21004;-72
2023/01/28 05:23:25;;;;;;;2.95;1.60;;;5.40;67.00;;;;;;2313284;54;20909;-71
2023/01/28 05:25:51;;;;;;;4.00;1.67;;;5.40;67.00;;;;;;2331065;53;20962;-72
2023/01/28 05:28:17;;;;;;;3.50;1.65;;;5.40;67.00;;;;;;2320851;53;21047;-72
2023/01/28 05:30:44;;;;;;;3.33;1.58;;;5.40;67.10;;;;;;2344552;53;21012;-72
2023/01/28 05:33:11;;;;;;;3.17;1.67;;;5.40;67.10;;;;;;2313379;53;21438;-73
2023/01/28 05:35:37;;;;;;;3.53;1.58;;;5.40;67.10;;;;;;2312667;54;21465;-72
2023/01/28 05:38:03;;;;;;;3.40;1.70;;;5.40;67.10;;;;;;2492120;53;21032;-72
2023/01/28 05:40:34;;;;;;;3.87;2.00;;;5.40;67.10;;;;;;2313056;54;21000;-72
2023/01/28 05:43:02;;;;;;;3.72;1.70;;;5.40;67.00;;;;;;2457785;53;20948;-72
2023/01/28 05:45:28;;;;;;;5.15;1.65;;;5.40;67.00;;;;;;2313393;54;20996;-74
2023/01/28 05:47:54;;;;;;;3.62;1.50;;;5.40;67.00;;;;;;2331567;53;20907;-71
2023/01/28 05:50:20;;;;;;;3.95;1.95;;;5.40;67.00;;;;;;2320992;53;20973;-72
2023/01/28 05:52:47;;;;;;;3.35;1.65;;;5.40;67.00;;;;;;2320054;53;21019;-72
2023/01/28 05:55:13;;;;;;;3.90;1.80;;;5.40;67.00;;;;;;2315302;53;20952;-72
2023/01/28 05:57:40;;;;;;;3.70;1.65;;;5.40;67.10;;;;;;2342518;54;20989;-71
2023/01/28 06:00:07;;;;;;;3.75;1.77;;;5.30;67.00;;;;;;2314134;53;21028;-72
2023/01/28 06:02:33;;;;;;;4.28;2.15;;;5.30;67.00;;;;;;2314077;54;20949;-71
2023/01/28 06:04:59;;;;;;;3.55;1.83;;;5.40;67.10;;;;;;2421218;53;21040;-71
2023/01/28 06:07:26;;;;;;;4.05;1.85;;;5.30;67.00;;;;;;2314477;54;20973;-71
2023/01/28 06:09:52;;;;;;;3.75;2.12;;;5.30;67.10;;;;;;2314193;53;21496;-72
2023/01/28 06:12:18;;;;;;;4.00;1.90;;;5.30;67.10;;;;;;2314463;54;21032;-72
2023/01/28 06:14:44;;;;;;;4.32;2.00;;;5.40;67.20;;;;;;2313699;54;20948;-72
2023/01/28 06:17:12;;;;;;;3.90;1.90;;;5.40;67.20;;;;;;2314738;54;20929;-72
2023/01/28 06:19:38;;;;;;;4.43;2.08;;;5.40;67.20;;;;;;2313933;54;21004;-72
2023/01/28 06:22:04;;;;;;;3.70;1.85;;;5.40;67.30;;;;;;2356512;53;20925;-72
2023/01/28 06:24:30;;;;;;;4.05;1.98;;;5.40;67.30;;;;;;2314298;54;20980;-72
2023/01/28 06:26:59;;;;;;;3.80;1.90;;;5.40;67.30;;;;;;2314401;54;20929;-72
2023/01/28 06:29:26;;;;;;;3.85;2.05;;;5.40;67.30;;;;;;2554578;53;21453;-73
2023/01/28 06:31:52;;;;;;;3.55;1.80;;;5.40;67.30;;;;;;2314293;54;20992;-72
2023/01/28 06:34:21;;;;;;;3.75;1.80;;;5.40;67.30;;;;;;2314121;54;21751;-72
2023/01/28 06:36:47;;;;;;;4.15;2.12;;;5.40;67.30;;;;;;2313898;53;20966;-72
2023/01/28 06:39:13;;;;;;;4.15;2.20;;;5.40;67.30;;;;;;2487605;53;21043;-72
2023/01/28 06:41:39;;;;;;;4.60;2.40;;;5.50;67.40;;;;;;2313629;54;20981;-71
2023/01/28 06:44:06;;;;;;;3.37;1.70;;;5.50;67.40;;;;;;2334557;53;21006;-73
2023/01/28 06:46:33;;;;;;;4.07;2.00;;;5.50;67.40;;;;;;2414612;53;20961;-72
2023/01/28 06:48:59;;;;;;;3.42;1.83;;;5.50;67.40;;;;;;2314431;54;21020;-72
2023/01/28 06:51:25;;;;;;;3.80;2.00;;;5.50;67.40;;;;;;2469496;53;20997;-72
2023/01/28 06:53:52;;;;;;;3.45;1.70;;;5.50;67.40;;;;;;2314300;54;21100;-72
2023/01/28 06:56:19;;;;;;;4.15;1.90;;;5.50;67.30;;;;;;2336469;53;20985;-71
2023/01/28 06:58:45;;;;;;;3.55;1.73;;;5.50;67.30;;;;;;2314056;54;20937;-72
2023/01/28 07:01:11;;;;;;;3.80;2.00;;;5.50;67.30;;;;;;2314597;54;20945;-72
2023/01/28 07:03:40;;;;;;;5.00;1.87;;;5.50;67.20;;;;;;2314070;54;20928;-71
2023/01/28 07:06:07;;;;;;;3.60;1.83;;;5.50;67.20;;;;;;2314807;54;20941;-72
2023/01/28 07:08:33;;;;;;;3.80;2.00;;;5.50;67.30;;;;;;2506094;53;21434;-71
2023/01/28 07:10:59;;;;;;;3.67;1.85;;;5.50;67.30;;;;;;2339448;53;21004;-72
2023/01/28 07:13:27;;;;;;;4.93;2.30;;;5.50;67.30;;;;;;2424855;53;21013;-72
2023/01/28 07:15:53;;;;;;;3.80;1.95;;;5.50;67.30;;;;;;2314324;54;20952;-72
2023/01/28 07:18:19;;;;;;;4.30;2.22;;;5.50;67.30;;;;;;2315068;54;21036;-72
2023/01/28 07:20:45;;;;;;;5.47;2.45;;;5.50;67.30;;;;;;2314380;54;21387;-71
2023/01/28 07:23:12;;;;;;;4.22;2.37;;;5.60;67.40;;;;;;2314879;54;21088;-72
2023/01/28 07:25:41;;;;;;;4.62;2.28;;;5.60;67.40;;;;;;2370985;53;20995;-72
2023/01/28 07:28:07;;;;;;;4.50;2.55;;;5.60;67.40;;;;;;2314526;54;20952;-72
2023/01/28 07:30:33;;;;;;;4.57;2.72;;;5.60;67.40;;;;;;2313880;54;20921;-72
2023/01/28 07:33:00;;;;;;;6.45;3.00;;;5.60;67.40;;;;;;2314361;54;21029;-72
2023/01/28 07:35:26;;;;;;;4.53;2.72;;;5.60;67.40;;;;;;2314131;54;21430;-72
2023/01/28 07:37:53;;;;;;;4.20;2.35;;;5.60;67.40;;;;;;2315513;54;20948;-72
2023/01/28 07:40:20;;;;;;;4.03;2.10;;;5.60;67.40;;;;;;2473265;53;20936;-72
2023/01/28 07:42:46;;;;;;;4.05;2.05;;;5.60;67.40;;;;;;2313131;54;21206;-71
2023/01/28 07:45:13;;;;;;;5.18;2.65;;;5.60;67.40;;;;;;2311533;54;20953;-73
2023/01/28 07:47:39;;;;;;;5.28;2.83;;;5.60;67.40;;;;;;2438490;53;20949;-71
2023/01/28 07:50:07;;;;;;;5.97;2.40;;;5.60;67.30;;;;;;2299971;54;21060;-72
2023/01/28 07:52:40;;;;;;;4.75;2.35;;;5.60;67.30;;;;;;2312256;53;20968;-72
2023/01/28 07:55:07;;;;;;;5.30;3.10;;;5.60;67.40;;;;;;2361563;55;20989;-72
2023/01/28 07:57:33;;;;;;;5.37;2.87;;;5.70;67.60;;;;;;2299925;54;21742;-72
2023/01/28 07:59:59;;;;;;;5.35;2.65;;;5.70;67.60;;;;;;2299586;54;20989;-71
2023/01/28 08:02:26;;;;;;;3.90;2.05;;;5.70;67.70;;;;;;2299913;54;21067;-72
2023/01/28 08:04:52;;;;;;;5.15;2.47;;;5.70;67.70;;;;;;2395323;53;20962;-73
2023/01/28 08:07:19;;;;;;;5.10;2.83;;;5.70;67.70;;;;;;2299863;54;21005;-72
2023/01/28 08:09:45;;;;;;;5.68;2.92;;;5.70;67.70;;;;;;2376395;53;20953;-72
2023/01/28 08:12:11;;;;;;;5.47;3.10;;;5.70;67.60;;;;;;2300415;54;20953;-72
2023/01/28 08:14:37;;;;;;;5.40;2.90;;;5.70;67.60;;;;;;2300168;54;21029;-72
2023/01/28 08:17:04;;;;;;;5.03;2.87;;;5.80;67.70;;;;;;2303578;53;21392;-72
2023/01/28 08:19:30;;;;;;;5.30;2.78;;;5.80;67.80;;;;;;2300319;54;20956;-72
2023/01/28 08:21:56;;;;;;;5.32;2.90;;;5.80;67.80;;;;;;2414696;53;20960;-72
2023/01/28 08:24:23;;;;;;;4.53;2.37;;;5.80;67.80;;;;;;2300192;54;21437;-72
2023/01/28 08:26:49;;;;;;;5.25;2.70;;;5.80;67.80;;;;;;2299785;54;21555;-72
2023/01/28 08:29:16;;;;;;;6.43;2.97;;;5.80;67.90;;;;;;2300341;54;21056;-72
2023/01/28 08:31:42;;;;;;;5.75;3.00;;;5.90;67.90;;;;;;2299966;54;21068;-72
2023/01/28 08:34:08;;;;;;;6.47;3.42;;;5.90;68.00;;;;;;2343174;54;20956;-73
2023/01/28 08:36:34;;;;;;;7.00;3.42;;;5.90;67.90;;;;;;2296276;54;20976;-73
2023/01/28 08:39:01;;;;;;;10.40;4.65;;;5.90;67.90;;;;;;2295820;54;21024;-73
2023/01/28 08:41:28;;;;;;;9.23;4.87;;;5.90;68.00;;;;;;2412965;53;20950;-74
2023/01/28 08:43:54;;;;;;;7.18;3.90;;;6.00;68.10;;;;;;2514137;53;21372;-74
2023/01/28 08:46:21;;;;;;;6.75;3.42;;;6.00;68.10;;;;;;2294313;54;21000;-74
2023/01/28 08:48:49;;;;;;;6.43;3.70;;;6.00;68.10;;;;;;2300808;54;21616;-72
2023/01/28 08:51:15;;;;;;;6.12;3.42;;;6.00;68.10;;;;;;2296474;54;21481;-72
2023/01/28 08:53:41;;;;;;;5.97;3.20;;;6.00;68.10;;;;;;2334061;53;20980;-72
2023/01/28 08:56:08;;;;;;;6.97;3.62;;;6.00;68.10;;;;;;2360481;53;21458;-72
2023/01/28 08:58:34;;;;;;;5.93;3.22;;;6.00;68.10;;;;;;2414937;53;21021;-72
2023/01/28 09:01:05;;;;;;;5.10;3.22;;;6.10;68.20;;;;;;2293999;54;21373;-71
2023/01/28 09:03:31;;;;;;;5.60;2.72;;;6.10;68.20;;;;;;2294236;54;21815;-72
2023/01/28 09:06:01;;;;;;;5.68;3.17;;;6.10;68.30;;;;;;2407153;53;21453;-72
2023/01/28 09:08:27;;;;;;;5.15;3.00;;;6.10;68.40;;;;;;2369011;53;21123;-72
2023/01/28 09:10:55;;;;;;;5.87;3.10;;;6.20;68.50;;;;;;2294883;54;21565;-73
2023/01/28 09:13:21;;;;;;;5.05;2.80;;;6.20;68.60;;;;;;2346499;53;21379;-72
2023/01/28 09:15:47;;;;;;;8.15;3.78;;;6.30;68.70;;;;;;2532976;53;21444;-72
2023/01/28 09:18:14;;;;;;;7.00;3.45;;;6.30;68.70;;;;;;2294708;54;21068;-73
2023/01/28 09:20:40;;;;;;;6.72;3.22;;;6.30;68.70;;;;;;2294406;54;21664;-72
2023/01/28 09:23:06;;;;;;;6.25;3.28;;;6.40;68.90;;;;;;2384247;53;21513;-72
2023/01/28 09:25:34;;;;;;;7.00;3.22;;;6.40;68.80;;;;;;2367476;53;20961;-73
2023/01/28 09:28:02;;;;;;;5.87;3.30;;;6.50;68.70;;;;;;2294546;54;21360;-73
2023/01/28 09:30:28;;;;;;;5.65;3.08;;;6.50;68.60;;;;;;2294443;54;21570;-72
2023/01/28 09:32:54;;;;;;;4.93;2.80;;;6.50;68.60;;;;;;2294531;54;21442;-72
2023/01/28 09:35:21;;;;;;;5.45;3.22;;;6.50;68.60;;;;;;2331006;53;20936;-72
2023/01/28 09:37:47;;;;;;;6.80;2.85;;;6.50;68.60;;;;;;2393197;53;21351;-73
2023/01/28 09:40:16;;;;;;;5.43;3.30;;;6.60;68.60;;;;;;2363920;53;21016;-73
2023/01/28 09:44:53;;;;;;;5.78;3.35;;;6.60;68.50;;;;;;2294011;54;21084;-72
2023/01/28 09:47:26;;;;;;;5.55;3.37;;;6.60;68.20;;;;;;2294458;54;20988;-72
2023/01/28 09:49:53;;;;;;;5.65;3.33;;;6.70;68.40;;;;;;2294233;54;21067;-73
2023/01/28 09:52:20;;;;;;;5.53;3.45;;;6.70;68.50;;;;;;2299466;54;20985;-73
2023/01/28 09:55:00;;;;;;;5.90;3.35;;;6.70;68.40;;;;;;2294098;54;21784;-73
2023/01/28 09:57:36;;;;;;;5.22;3.08;;;6.70;68.30;;;;;;2294500;54;21977;-73
2023/01/28 10:00:08;;;;;;;5.68;3.35;;;6.70;68.40;;;;;;2294401;54;21503;-73
2023/01/28 10:02:41;;;;;;;5.22;3.17;;;6.70;68.50;;;;;;2294363;54;21463;-73
2023/01/28 10:07:51;;;;;;;5.60;3.08;;;6.70;68.50;;;;;;2294332;54;21427;-72
2023/01/28 10:10:30;;;;;;;4.82;2.65;;;6.80;68.00;;;;;;2273627;55;20964;-73
2023/01/28 10:13:29;;;;;;;5.18;3.17;;;6.80;68.50;;;;;;2295684;54;20956;-72
2023/01/28 10:16:25;;;;;;;6.35;3.65;;;6.90;68.70;;;;;;2293861;54;21352;-73
2023/01/28 10:19:01;;;;;;;6.93;3.78;;;6.90;68.60;;;;;;2294041;54;21288;-73
2023/01/28 10:21:46;;;;;;;6.12;3.45;;;6.90;68.70;;;;;;2326042;53;21439;-73
2023/01/28 10:24:40;;;;;;;5.82;3.17;;;7.00;68.70;;;;;;2496368;53;21625;-73
2023/01/28 10:27:23;;;;;;;6.40;3.50;;;7.00;68.50;;;;;;2294427;54;21464;-73
2023/01/28 10:29:50;;;;;;;6.25;3.12;;;7.00;68.50;;;;;;2293848;54;21579;-73
2023/01/28 10:32:33;;;;;;;5.45;3.28;;;7.00;68.70;;;;;;2351828;53;21103;-73
2023/01/28 10:35:00;;;;;;;6.10;3.47;;;7.10;68.40;;;;;;2316123;53;21053;-73
2023/01/28 10:37:27;;;;;;;6.72;3.78;;;7.10;68.80;;;;;;2298658;53;20960;-73
2023/01/28 10:39:56;;;;;;;8.50;4.12;;;7.10;68.60;;;;;;2294089;54;21841;-72
2023/01/28 10:42:27;;;;;;;7.35;3.85;;;7.10;68.50;;;;;;2294149;54;21020;-73
2023/01/28 10:44:59;;;;;;;6.12;3.40;;;7.10;68.30;;;;;;2370417;53;20948;-72
2023/01/28 10:47:40;;;;;;;7.47;3.90;;;7.20;68.50;;;;;;2294262;54;20995;-73
2023/01/28 10:50:09;;;;;;;4.97;2.83;;;7.20;68.20;;;;;;2293956;54;21096;-73
2023/01/28 10:52:35;;;;;;;5.72;3.37;;;7.20;68.50;;;;;;2293954;54;21900;-73
2023/01/28 10:55:03;;;;;;;5.97;3.25;;;7.20;68.50;;;;;;2305107;53;21081;-72
2023/01/28 10:57:32;;;;;;;5.90;3.42;;;7.20;68.50;;;;;;2386801;53;21525;-73
2023/01/28 11:00:09;;;;;;;6.10;3.67;;;7.20;68.50;;;;;;2294104;54;21284;-73
2023/01/28 11:02:36;;;;;;;6.25;4.10;;;7.30;68.40;;;;;;2293868;54;21470;-73
2023/01/28 11:05:04;;;;;;;6.62;4.12;;;7.30;68.70;;;;;;2294062;54;21547;-73
2023/01/28 11:07:31;;;;;;;7.25;4.47;;;7.30;68.70;;;;;;2301468;54;20928;-73
2023/01/28 11:09:57;;;;;;;7.62;4.70;;;7.30;68.60;;;;;;2293956;54;21012;-73
2023/01/28 11:12:28;;;;;;;5.90;3.83;;;7.40;68.70;;;;;;2294001;54;21300;-73
2023/01/28 11:15:01;;;;;;;6.18;3.75;;;7.40;68.40;;;;;;2306815;54;22003;-73
2023/01/28 11:17:30;;;;;;;8.98;4.50;;;7.40;68.40;;;;;;2362315;53;20972;-72
2023/01/28 11:20:08;;;;;;;6.55;3.70;;;7.40;68.40;;;;;;2295659;54;21360;-71
2023/01/28 11:22:43;;;;;;;6.97;3.90;;;7.40;68.40;;;;;;2351311;53;21260;-74
2023/01/28 11:25:34;;;;;;;6.40;3.67;;;7.40;68.30;;;;;;2294981;54;21410;-73
2023/01/28 11:28:06;;;;;;;8.90;4.70;;;7.50;68.40;;;;;;2294595;54;20941;-75
2023/01/28 11:30:39;;;;;;;7.70;4.60;;;7.50;68.70;;;;;;2396326;53;22452;-72
2023/01/28 11:33:20;;;;;;;;;;;7.50;68.50;;;;;;2297902;54;21410;-76
2023/01/28 11:36:02;;;;;;;7.82;4.40;;;7.60;67.90;;;;;;2294440;54;20635;-77
2023/01/28 11:38:28;;;;;;;8.25;4.75;;;7.60;68.50;;;;;;2320936;53;20978;-73
2023/01/28 11:40:56;;;;;;;7.45;4.53;;;7.60;68.70;;;;;;2294635;54;20952;-73
2023/01/28 11:43:26;;;;;;;8.27;5.00;;;7.60;68.60;;;;;;2294444;54;21548;-73
2023/01/28 11:46:07;;;;;;;8.55;5.03;;;7.60;69.20;;;;;;2334393;53;21435;-71
2023/01/28 11:51:35;;;;;;;9.73;5.18;;;7.60;68.40;;;;;;2293620;54;21468;-70
2023/01/28 11:54:25;;;;;;;7.57;4.03;;;7.70;69.20;;;;;;2294269;54;21421;-71
2023/01/28 12:00:18;;;;;;;8.27;4.87;;;7.70;68.50;;;;;;2500668;54;21616;-70
2023/01/28 12:03:00;;;;;;;6.68;4.15;;;7.70;67.90;;;;;;2399776;53;21451;-75
2023/01/28 12:05:45;;;;;;;7.57;4.50;;;7.70;68.30;;;;;;2294565;54;21331;-72
2023/01/28 12:08:25;;;;;;;8.07;4.70;;;7.70;67.80;;;;;;2306155;53;20956;-75
2023/01/28 12:14:42;;;;;;;6.85;4.18;;;7.80;68.20;;;;;;2294442;54;21639;-75
2023/01/28 12:20:51;;;;;;;6.60;4.05;;;7.80;67.90;;;;;;2305995;54;20945;-73
2023/01/28 12:24:59;;;;;;;7.22;4.00;;;7.80;67.60;;;;;;2294558;54;20969;-71
2023/01/28 12:30:52;;;;;;;7.82;3.80;;;7.80;67.40;;;;;;2294572;54;20945;-71
2023/01/28 12:33:40;;;;;;;7.45;3.90;;;7.80;68.00;;;;;;2296562;53;20953;-74
2023/01/28 12:36:43;;;;;;;8.55;4.87;;;7.90;68.10;;;;;;2294359;54;21356;-72
2023/01/28 12:42:08;;;;;;;;;;;7.80;67.80;;;;;;2304941;54;21003;-73
2023/01/28 12:44:37;;;;;;;8.07;4.45;;;7.80;67.70;;;;;;2293879;54;20464;-73
2023/01/28 12:47:15;;;;;;;7.62;4.32;;;7.80;68.20;;;;;;2294103;54;21977;-72
2023/01/28 12:49:47;;;;;;;8.25;4.62;;;7.80;67.70;;;;;;2309471;54;21423;-72
2023/01/28 12:52:25;;;;;;;7.87;4.72;;;7.80;68.00;;;;;;2505164;53;21012;-72
2023/01/28 12:55:15;;;;;;;9.68;5.57;;;7.70;67.80;;;;;;2294343;54;21009;-73
2023/01/28 12:57:41;;;;;;;9.05;5.22;;;7.80;67.70;;;;;;2420453;53;20980;-74
2023/01/28 13:03:44;;;;;;;9.75;5.47;;;7.70;68.00;;;;;;2338390;53;21146;-72
2023/01/28 13:06:30;;;;;;;8.32;4.68;;;7.70;67.60;;;;;;2294532;54;21039;-74
2023/01/28 13:09:00;;;;;;;9.25;5.05;;;7.70;67.60;;;;;;2311416;54;21799;-74
2023/01/28 13:11:30;;;;;;;10.60;5.80;;;7.70;67.70;;;;;;2294339;54;21345;-73
2023/01/28 13:13:56;;;;;;;9.68;6.00;;;7.60;67.70;;;;;;2294186;54;21811;-72
2023/01/28 13:16:23;;;;;;;8.60;4.87;;;7.70;67.80;;;;;;2366498;53;21900;-73
2023/01/28 13:19:07;;;;;;;8.00;4.65;;;7.70;67.70;;;;;;2303326;54;21104;-74
2023/01/28 13:21:34;;;;;;;9.18;5.30;;;7.70;67.70;;;;;;2295113;54;20932;-72
2023/01/28 13:24:29;;;;;;;9.40;5.72;;;7.60;67.80;;;;;;2417282;53;20996;-75
2023/01/28 13:26:55;;;;;;;8.98;5.40;;;7.70;67.50;;;;;;2294010;54;21594;-73
2023/01/28 13:29:40;;;;;;;9.05;5.50;;;7.60;67.70;;;;;;2294266;54;21213;-73
2023/01/28 13:32:30;;;;;;;8.75;5.18;;;7.70;67.30;;;;;;2302389;54;21028;-72
2023/01/28 13:34:58;;;;;;;9.55;5.07;;;7.70;67.30;;;;;;2342677;53;21423;-72
2023/01/28 13:37:37;;;;;;;9.32;5.18;;;7.70;67.80;;;;;;2294440;54;20980;-73
2023/01/28 13:40:27;;;;;;;8.90;4.85;;;7.70;67.50;;;;;;2296211;53;21775;-72
2023/01/28 13:43:37;;;;;;;9.20;4.90;;;7.60;67.50;;;;;;2294177;54;20936;-72
2023/01/28 13:46:14;;;;;;;9.00;4.97;;;7.70;67.00;;;;;;2294810;54;21558;-74
2023/01/28 13:48:50;;;;;;;9.38;5.32;;;7.60;67.60;;;;;;2325564;53;21461;-73
2023/01/28 13:51:33;;;;;;;9.10;4.85;;;7.60;67.30;;;;;;2379468;53;21829;-72
2023/01/28 13:54:19;;;;;;;9.02;4.78;;;7.60;67.10;;;;;;2294345;54;22081;-71
2023/01/28 13:57:13;;;;;;;8.88;4.82;;;7.60;67.10;;;;;;2294020;54;21483;-73
2023/01/28 14:01:21;;;;;;;7.20;4.12;;;7.60;67.30;;;;;;2289953;54;21607;-75
2023/01/28 14:04:15;;;;;;;7.93;4.50;;;7.60;66.70;;;;;;2289159;54;21585;-72
2023/01/28 14:07:01;;;;;;;9.20;5.12;;;7.60;67.50;;;;;;2289093;54;21411;-71
2023/01/28 14:11:21;;;;;;;8.00;4.43;;;7.60;67.60;;;;;;2289394;54;20996;-72
2023/01/28 14:15:12;;;;;;;7.97;4.15;;;7.70;66.80;;;;;;2288582;54;21475;-72
2023/01/28 14:17:46;;;;;;;7.22;4.28;;;7.70;67.70;;;;;;2325825;53;21493;-73
2023/01/28 14:20:21;;;;;;;7.40;4.35;;;7.70;67.50;;;;;;2289615;54;21423;-74
2023/01/28 14:22:48;;;;;;;7.55;4.03;;;7.70;67.50;;;;;;2288838;54;20961;-71
2023/01/28 14:25:17;;;;;;;8.63;5.15;;;7.60;67.70;;;;;;2289458;54;20949;-72
2023/01/28 14:27:46;;;;;;;8.02;4.60;;;7.60;67.60;;;;;;2298605;54;21546;-73
2023/01/28 14:30:53;;;;;;;7.82;4.00;;;7.60;67.70;;;;;;2289555;54;21978;-73
2023/01/28 14:33:19;;;;;;;6.95;3.83;;;7.60;67.60;;;;;;2488785;53;21552;-73
2023/01/28 14:35:46;;;;;;;8.13;4.43;;;7.70;68.00;;;;;;2313456;53;21930;-73
2023/01/28 14:38:17;;;;;;;6.45;4.12;;;7.70;67.90;;;;;;2289262;54;21423;-73
2023/01/28 14:40:44;;;;;;;6.85;4.20;;;7.70;67.70;;;;;;2320807;54;21064;-72
2023/01/28 14:43:19;;;;;;;7.60;4.78;;;7.70;67.70;;;;;;2289127;54;21332;-73